createdAt,value
2017-11-29T00:01:55.817Z,77.78
2017-11-29T00:04:23.737Z,77.84
2017-11-29T00:06:52.121Z,77.63
2017-11-29T00:09:20.039Z,77.90
2017-11-29T00:11:47.969Z,77.79
2017-11-29T00:14:15.890Z,77.80
2017-11-29T00:16:43.786Z,77.79
2017-11-29T00:19:12.104Z,77.81
2017-11-29T00:21:40.017Z,77.92
2017-11-29T00:24:08.325Z,77.84
2017-11-29T00:26:36.278Z,77.49
2017-11-29T00:29:04.194Z,77.27
2017-11-29T00:31:32.087Z,77.14
2017-11-29T00:34:00.057Z,77.32
2017-11-29T00:36:27.976Z,77.62
2017-11-29T00:38:55.905Z,77.33
2017-11-29T00:41:24.221Z,77.15
2017-11-29T00:43:52.118Z,77.19
2017-11-29T00:46:20.042Z,77.43
2017-11-29T00:48:47.954Z,77.32
2017-11-29T00:51:15.943Z,77.94
2017-11-29T00:53:43.839Z,78.35
2017-11-29T00:56:11.774Z,78.29
2017-11-29T00:58:39.691Z,78.27
2017-11-29T01:01:07.597Z,78.53
2017-11-29T01:03:35.523Z,78.80
2017-11-29T01:06:03.498Z,78.40
2017-11-29T01:08:31.404Z,78.17
2017-11-29T01:10:59.366Z,78.68
2017-11-29T01:13:27.268Z,78.33
2017-11-29T01:15:55.681Z,78.65
2017-11-29T01:18:23.613Z,79.13
2017-11-29T01:20:51.926Z,79.84
2017-11-29T01:23:19.845Z,79.84
2017-11-29T01:25:47.786Z,79.97
2017-11-29T01:28:15.703Z,80.54
2017-11-29T01:30:43.600Z,80.73
2017-11-29T01:33:11.607Z,80.60
2017-11-29T01:35:39.530Z,81.10
2017-11-29T01:38:07.441Z,81.25
2017-11-29T01:40:35.404Z,81.91
2017-11-29T01:43:03.317Z,81.61
2017-11-29T01:45:31.621Z,81.94
2017-11-29T01:47:59.533Z,81.86
2017-11-29T01:50:27.434Z,81.83
2017-11-29T01:52:55.738Z,81.93
2017-11-29T01:55:23.741Z,81.80
2017-11-29T01:57:51.710Z,81.97
2017-11-29T02:00:19.618Z,81.95
2017-11-29T02:02:47.548Z,82.25
2017-11-29T02:05:15.458Z,82.23
2017-11-29T02:07:43.399Z,82.02
2017-11-29T02:10:11.321Z,82.34
2017-11-29T02:12:39.339Z,82.40
2017-11-29T02:15:07.283Z,82.54
2017-11-29T02:17:35.215Z,82.30
2017-11-29T02:20:03.127Z,82.51
2017-11-29T02:22:31.030Z,82.53
2017-11-29T02:24:59.345Z,82.50
2017-11-29T02:27:27.318Z,82.14
2017-11-29T02:29:55.209Z,82.00
2017-11-29T02:32:23.134Z,81.79
2017-11-29T02:34:51.048Z,81.59
2017-11-29T02:37:18.953Z,81.27
2017-11-29T02:39:58.757Z,81.35
2017-11-29T02:42:37.525Z,81.00
2017-11-29T02:45:05.460Z,81.45
2017-11-29T02:47:33.392Z,81.30
2017-11-29T02:50:01.416Z,82.08
2017-11-29T02:52:29.734Z,82.19
2017-11-29T02:54:57.636Z,82.22
2017-11-29T02:57:25.660Z,82.47
2017-11-29T02:59:53.581Z,82.69
2017-11-29T03:02:21.889Z,82.94
2017-11-29T03:04:49.807Z,83.32
2017-11-29T03:07:17.737Z,83.29
2017-11-29T03:09:45.667Z,83.85
2017-11-29T03:12:13.597Z,84.22
2017-11-29T03:14:41.588Z,83.99
2017-11-29T03:17:09.489Z,84.29
2017-11-29T03:19:37.791Z,84.64
2017-11-29T03:22:05.728Z,84.59
2017-11-29T03:24:34.038Z,84.54
2017-11-29T03:27:01.976Z,84.74
2017-11-29T03:29:30.322Z,84.45
2017-11-29T03:31:58.222Z,84.65
2017-11-29T03:34:26.515Z,84.16
2017-11-29T03:36:54.447Z,83.95
2017-11-29T03:39:22.357Z,84.22
2017-11-29T03:41:50.271Z,84.35
2017-11-29T03:44:18.198Z,84.20
2017-11-29T03:46:46.134Z,84.27
2017-11-29T03:49:14.440Z,84.62
2017-11-29T03:51:42.354Z,84.47
2017-11-29T03:54:10.354Z,84.10
2017-11-29T03:56:38.656Z,83.96
2017-11-29T03:59:06.594Z,84.12
2017-11-29T04:01:34.892Z,84.04
2017-11-29T04:04:02.793Z,83.86
2017-11-29T04:06:30.741Z,83.47
2017-11-29T04:08:58.646Z,83.75
2017-11-29T04:11:26.670Z,83.86
2017-11-29T04:13:54.612Z,84.01
2017-11-29T04:16:22.577Z,83.73
2017-11-29T04:18:50.952Z,83.64
2017-11-29T04:21:18.882Z,83.30
2017-11-29T04:23:46.789Z,83.17
2017-11-29T04:26:14.710Z,82.81
2017-11-29T04:28:42.649Z,83.17
2017-11-29T04:31:10.561Z,82.98
2017-11-29T04:33:38.476Z,82.70
2017-11-29T04:36:06.803Z,82.64
2017-11-29T04:38:34.752Z,82.77
2017-11-29T04:41:02.652Z,82.59
2017-11-29T04:43:30.614Z,82.51
2017-11-29T04:45:58.531Z,82.75
2017-11-29T04:48:26.849Z,82.80
2017-11-29T04:50:54.772Z,82.30
2017-11-29T04:53:23.076Z,82.63
2017-11-29T04:55:51.162Z,83.14
2017-11-29T04:58:19.170Z,83.13
2017-11-29T05:00:47.073Z,83.51
2017-11-29T05:03:14.969Z,83.68
2017-11-29T05:05:42.886Z,84.07
2017-11-29T05:08:11.182Z,84.49
2017-11-29T05:10:39.115Z,85.15
2017-11-29T05:13:07.059Z,85.44
2017-11-29T05:15:34.970Z,85.74
2017-11-29T05:18:03.271Z,85.90
2017-11-29T05:20:31.204Z,85.75
2017-11-29T05:22:59.145Z,85.83
2017-11-29T05:25:27.060Z,86.39
2017-11-29T05:27:55.387Z,86.35
2017-11-29T05:30:23.296Z,86.67
2017-11-29T05:32:51.588Z,86.48
2017-11-29T05:35:19.515Z,86.63
2017-11-29T05:37:47.452Z,86.28
2017-11-29T05:40:15.474Z,86.40
2017-11-29T05:42:43.855Z,86.24
2017-11-29T05:45:12.149Z,86.19
2017-11-29T05:47:40.075Z,86.08
2017-11-29T05:50:08.055Z,85.97
2017-11-29T05:52:35.964Z,86.09
2017-11-29T05:55:03.920Z,86.18
2017-11-29T05:57:32.242Z,86.19
2017-11-29T06:00:00.184Z,85.95
2017-11-29T06:02:28.094Z,85.91
2017-11-29T06:04:56.019Z,86.20
2017-11-29T06:07:23.909Z,86.35
2017-11-29T06:09:51.916Z,86.75
2017-11-29T06:12:19.847Z,86.85
2017-11-29T06:14:47.787Z,86.68
2017-11-29T06:17:15.703Z,86.72
2017-11-29T06:19:43.754Z,86.51
2017-11-29T06:22:11.667Z,86.41
2017-11-29T06:24:39.969Z,86.57
2017-11-29T06:27:07.947Z,86.85
2017-11-29T06:29:35.893Z,86.64
2017-11-29T06:32:04.213Z,86.68
2017-11-29T06:34:32.151Z,86.63
2017-11-29T06:37:00.069Z,86.23
2017-11-29T06:39:27.986Z,86.07
2017-11-29T06:41:55.936Z,86.14
2017-11-29T06:44:24.265Z,86.39
2017-11-29T06:46:52.305Z,86.21
2017-11-29T06:49:20.237Z,87.07
2017-11-29T06:51:48.232Z,86.61
2017-11-29T06:54:16.533Z,86.67
2017-11-29T06:56:44.455Z,86.31
2017-11-29T06:59:12.563Z,86.15
2017-11-29T07:01:40.533Z,85.96
2017-11-29T07:04:08.557Z,85.92
2017-11-29T07:06:36.547Z,85.67
2017-11-29T07:09:04.855Z,85.42
2017-11-29T07:11:32.877Z,84.96
2017-11-29T07:14:00.788Z,85.33
2017-11-29T07:16:28.698Z,84.32
2017-11-29T07:18:56.624Z,83.89
2017-11-29T07:21:24.599Z,84.06
2017-11-29T07:23:52.491Z,83.46
2017-11-29T07:26:20.429Z,83.64
2017-11-29T07:28:48.359Z,82.60
2017-11-29T07:31:16.371Z,82.52
2017-11-29T07:33:44.341Z,82.28
2017-11-29T07:36:12.245Z,82.53
2017-11-29T07:38:40.164Z,81.97
2017-11-29T07:41:08.146Z,81.37
2017-11-29T07:43:36.074Z,76.71
2017-11-29T07:46:04.047Z,72.09
2017-11-29T07:48:32.414Z,68.92
2017-11-29T07:51:00.327Z,65.79
2017-11-29T07:53:28.287Z,63.87
2017-11-29T07:55:56.227Z,64.35
2017-11-29T07:58:24.152Z,65.87
2017-11-29T08:00:52.062Z,67.04
2017-11-29T08:03:19.983Z,69.15
2017-11-29T08:05:47.899Z,70.19
2017-11-29T08:08:15.797Z,73.11
2017-11-29T08:10:43.831Z,74.54
2017-11-29T08:13:11.732Z,74.48
2017-11-29T08:15:39.663Z,74.85
2017-11-29T08:18:07.593Z,75.02
2017-11-29T08:20:36.503Z,74.60
2017-11-29T08:23:04.439Z,74.01
2017-11-29T08:25:32.362Z,74.80
2017-11-29T08:28:00.282Z,74.31
2017-11-29T08:30:28.189Z,74.77
2017-11-29T08:32:57.018Z,75.97
2017-11-29T08:35:24.937Z,73.49
2017-11-29T08:37:52.872Z,68.66
2017-11-29T08:40:20.807Z,65.30
2017-11-29T08:42:49.627Z,61.84
2017-11-29T08:45:17.541Z,60.15
2017-11-29T08:47:45.460Z,59.03
2017-11-29T08:50:13.369Z,56.49
2017-11-29T08:52:41.301Z,55.22
2017-11-29T08:55:09.318Z,54.83
2017-11-29T08:57:37.284Z,52.50
2017-11-29T09:00:05.195Z,51.19
2017-11-29T09:02:33.133Z,50.24
2017-11-29T09:05:01.453Z,49.07
2017-11-29T09:07:29.373Z,48.36
2017-11-29T09:09:57.300Z,48.13
2017-11-29T09:12:25.237Z,46.28
2017-11-29T09:14:53.555Z,46.09
2017-11-29T09:17:21.583Z,44.14
2017-11-29T09:19:49.893Z,43.18
2017-11-29T09:22:17.800Z,41.85
2017-11-29T09:24:45.805Z,41.84
2017-11-29T09:27:13.722Z,40.79
2017-11-29T09:29:41.640Z,40.48
2017-11-29T09:32:09.634Z,41.42
2017-11-29T09:34:37.649Z,39.93
2017-11-29T09:37:05.605Z,39.80
2017-11-29T09:39:33.545Z,39.84
2017-11-29T09:42:01.475Z,39.75
2017-11-29T09:44:29.781Z,39.34
2017-11-29T09:46:57.717Z,38.63
2017-11-29T09:49:25.662Z,39.48
2017-11-29T09:51:53.587Z,39.05
2017-11-29T09:54:21.621Z,40.53
2017-11-29T09:56:49.921Z,39.97
2017-11-29T09:59:18.362Z,39.88
2017-11-29T10:01:46.322Z,41.86
2017-11-29T10:04:14.245Z,40.55
2017-11-29T10:06:42.156Z,41.82
2017-11-29T10:09:10.096Z,43.01
2017-11-29T10:11:38.093Z,41.88
2017-11-29T10:14:06.005Z,42.77
2017-11-29T10:16:34.062Z,42.57
2017-11-29T10:19:02.369Z,42.98
2017-11-29T10:21:30.404Z,42.32
2017-11-29T10:23:58.725Z,42.59
2017-11-29T10:26:26.645Z,44.61
2017-11-29T10:28:54.956Z,45.05
2017-11-29T10:31:22.986Z,44.93
2017-11-29T10:33:51.313Z,45.19
2017-11-29T10:36:19.238Z,46.24
2017-11-29T10:38:47.176Z,50.00
2017-11-29T10:41:15.116Z,48.52
2017-11-29T10:43:43.032Z,49.13
2017-11-29T10:48:45.237Z,51.88
2017-11-29T10:51:13.299Z,53.73
2017-11-29T10:53:41.664Z,55.15
2017-11-29T10:56:09.644Z,55.71
2017-11-29T10:58:37.596Z,55.05
2017-11-29T11:01:05.619Z,54.71
2017-11-29T11:03:33.553Z,53.36
2017-11-29T11:06:01.477Z,53.20
2017-11-29T11:08:29.480Z,55.20
2017-11-29T11:10:57.385Z,55.91
2017-11-29T11:13:25.311Z,56.47
2017-11-29T11:15:53.217Z,58.12
2017-11-29T11:18:21.131Z,58.80
2017-11-29T11:20:49.064Z,61.56
2017-11-29T11:23:16.970Z,60.83
2017-11-29T11:25:44.877Z,61.67
2017-11-29T11:28:12.786Z,62.25
2017-11-29T11:30:40.684Z,62.67
2017-11-29T11:33:08.589Z,63.74
2017-11-29T11:35:36.898Z,64.10
2017-11-29T11:38:04.793Z,64.56
2017-11-29T11:40:32.692Z,64.43
2017-11-29T11:43:01.016Z,64.92
2017-11-29T11:45:28.917Z,66.22
2017-11-29T11:47:56.813Z,66.75
2017-11-29T11:50:25.125Z,66.99
2017-11-29T11:52:53.037Z,67.37
2017-11-29T11:55:20.948Z,66.41
2017-11-29T11:57:48.881Z,66.39
2017-11-29T12:00:17.190Z,65.70
2017-11-29T12:02:45.111Z,65.83
2017-11-29T12:05:13.025Z,66.58
2017-11-29T12:07:40.921Z,66.24
2017-11-29T12:10:08.829Z,67.17
2017-11-29T12:12:37.134Z,68.49
2017-11-29T12:15:05.032Z,68.61
2017-11-29T12:17:32.926Z,68.80
2017-11-29T12:20:00.866Z,69.25
2017-11-29T12:22:28.782Z,69.67
2017-11-29T12:24:57.086Z,69.44
2017-11-29T12:27:25.011Z,68.93
2017-11-29T12:29:52.909Z,68.59
2017-11-29T12:32:20.855Z,68.47
2017-11-29T12:34:49.163Z,68.46
2017-11-29T12:37:17.057Z,68.61
2017-11-29T12:39:44.964Z,68.83
2017-11-29T12:42:12.889Z,69.19
2017-11-29T12:44:40.785Z,69.50
2017-11-29T12:47:08.691Z,69.20
2017-11-29T12:49:48.538Z,69.68
2017-11-29T12:52:16.430Z,69.96
2017-11-29T12:54:44.323Z,70.21
2017-11-29T12:57:12.250Z,70.36
2017-11-29T12:59:40.159Z,72.24
2017-11-29T13:02:08.126Z,70.94
2017-11-29T13:04:36.048Z,70.20
2017-11-29T13:07:03.940Z,70.05
2017-11-29T13:09:31.841Z,70.56
2017-11-29T13:11:59.768Z,70.02
2017-11-29T13:14:27.674Z,69.80
2017-11-29T13:16:55.601Z,69.80
2017-11-29T13:19:23.516Z,70.44
2017-11-29T13:21:51.416Z,70.58
2017-11-29T13:24:19.313Z,70.52
2017-11-29T13:26:47.222Z,70.46
2017-11-29T13:29:15.133Z,71.00
2017-11-29T13:31:43.032Z,71.20
2017-11-29T13:34:11.324Z,71.69
2017-11-29T13:36:39.223Z,71.79
2017-11-29T13:39:07.568Z,71.97
2017-11-29T13:41:35.879Z,72.46
2017-11-29T13:44:04.200Z,73.04
2017-11-29T13:46:32.098Z,73.01
2017-11-29T13:49:00.017Z,73.25
2017-11-29T13:51:27.939Z,73.46
2017-11-29T13:53:55.854Z,73.59
2017-11-29T13:56:23.796Z,74.50
2017-11-29T13:58:52.096Z,74.41
2017-11-29T14:01:19.989Z,74.12
2017-11-29T14:03:47.909Z,74.48
2017-11-29T14:06:16.215Z,74.92
2017-11-29T14:08:44.165Z,75.09
2017-11-29T14:11:12.088Z,75.02
2017-11-29T14:13:39.991Z,75.45
2017-11-29T14:16:08.303Z,76.14
2017-11-29T14:18:36.245Z,75.72
2017-11-29T14:21:04.144Z,75.79
2017-11-29T14:23:32.120Z,76.00
2017-11-29T14:26:00.089Z,76.30
2017-11-29T14:28:27.985Z,76.71
2017-11-29T14:30:56.306Z,77.06
2017-11-29T14:33:24.247Z,77.51
2017-11-29T14:35:52.565Z,77.72
2017-11-29T14:38:20.474Z,78.02
2017-11-29T14:40:48.428Z,77.98
2017-11-29T14:43:16.332Z,77.94
2017-11-29T14:45:44.656Z,77.82
2017-11-29T14:48:12.584Z,78.22
2017-11-29T14:50:41.013Z,78.42
2017-11-29T14:53:08.905Z,78.62
2017-11-29T14:55:36.853Z,79.16
2017-11-29T14:58:04.780Z,79.17
2017-11-29T15:00:32.702Z,79.06
2017-11-29T15:03:00.633Z,79.11
2017-11-29T15:05:28.537Z,79.26
2017-11-29T15:07:56.446Z,79.67
2017-11-29T15:10:24.368Z,80.20
2017-11-29T15:12:52.295Z,80.13
2017-11-29T15:15:20.372Z,80.04
2017-11-29T15:17:48.441Z,80.07
2017-11-29T15:20:17.214Z,80.04
2017-11-29T15:22:45.126Z,80.49
2017-11-29T15:25:13.079Z,80.31
2017-11-29T15:27:41.012Z,80.96
2017-11-29T15:30:09.344Z,81.02
2017-11-29T15:32:37.271Z,81.25
2017-11-29T15:35:05.174Z,81.50
2017-11-29T15:37:33.082Z,81.35
2017-11-29T15:40:01.398Z,81.66
2017-11-29T15:42:29.296Z,81.40
2017-11-29T15:44:57.189Z,81.71
2017-11-29T15:47:25.501Z,81.44
2017-11-29T15:49:53.399Z,81.17
2017-11-29T15:52:21.319Z,81.91
2017-11-29T15:54:49.634Z,82.01
2017-11-29T15:57:17.532Z,82.29
2017-11-29T15:59:45.441Z,82.23
2017-11-29T16:02:13.359Z,82.46
2017-11-29T16:04:41.286Z,82.44
2017-11-29T16:07:09.241Z,82.60
2017-11-29T16:09:37.160Z,82.61
2017-11-29T16:12:05.057Z,82.77
2017-11-29T16:14:33.344Z,82.61
2017-11-29T16:17:01.652Z,82.74
2017-11-29T16:19:29.729Z,82.65
2017-11-29T16:21:57.636Z,82.61
2017-11-29T16:24:25.652Z,82.55
2017-11-29T16:26:53.817Z,82.43
2017-11-29T16:29:21.706Z,82.56
2017-11-29T16:31:49.664Z,82.62
2017-11-29T16:34:17.564Z,82.50
2017-11-29T16:36:45.473Z,82.61
2017-11-29T16:39:13.793Z,82.63
2017-11-29T16:41:41.693Z,83.06
2017-11-29T16:44:09.593Z,82.71
2017-11-29T16:46:37.533Z,82.77
2017-11-29T16:49:05.436Z,82.79
2017-11-29T16:51:33.361Z,82.83
2017-11-29T16:54:01.267Z,82.51
2017-11-29T16:56:29.175Z,82.35
2017-11-29T16:58:57.082Z,82.27
2017-11-29T17:01:25.405Z,82.15
2017-11-29T17:03:53.308Z,82.13
2017-11-29T17:06:21.221Z,82.06
2017-11-29T17:08:49.135Z,82.07
2017-11-29T17:11:17.039Z,81.98
2017-11-29T17:13:45.341Z,81.77
2017-11-29T17:16:13.263Z,81.84
2017-11-29T17:18:41.169Z,81.63
2017-11-29T17:21:09.077Z,81.12
2017-11-29T17:23:37.058Z,81.18
2017-11-29T17:26:05.030Z,81.30
2017-11-29T17:28:32.934Z,81.17
2017-11-29T17:31:01.253Z,81.23
2017-11-29T17:33:29.198Z,80.95
2017-11-29T17:35:57.138Z,81.21
2017-11-29T17:38:25.448Z,81.56
2017-11-29T17:40:53.355Z,81.49
2017-11-29T17:43:21.325Z,81.83
2017-11-29T17:45:49.254Z,82.23
2017-11-29T17:48:17.144Z,81.93
2017-11-29T17:50:45.058Z,81.92
2017-11-29T17:53:13.368Z,81.97
2017-11-29T17:55:41.276Z,82.17
2017-11-29T17:58:09.180Z,81.98
2017-11-29T18:00:37.106Z,82.15
2017-11-29T18:03:04.999Z,82.40
2017-11-29T18:05:33.352Z,82.03
2017-11-29T18:08:01.270Z,82.48
2017-11-29T18:10:29.164Z,82.41
2017-11-29T18:12:57.070Z,82.60
2017-11-29T18:15:24.990Z,82.46
2017-11-29T18:17:52.919Z,82.25
2017-11-29T18:20:21.242Z,82.87
2017-11-29T18:22:49.160Z,82.99
2017-11-29T18:25:17.065Z,83.47
2017-11-29T18:27:44.963Z,83.44
2017-11-29T18:30:12.912Z,83.77
2017-11-29T18:32:40.833Z,83.26
2017-11-29T18:35:09.211Z,83.25
2017-11-29T18:37:37.624Z,83.00
2017-11-29T18:40:05.536Z,83.29
2017-11-29T18:42:33.438Z,83.20
2017-11-29T18:45:01.747Z,83.23
2017-11-29T18:47:29.665Z,82.87
2017-11-29T18:49:57.968Z,83.31
2017-11-29T18:52:25.878Z,83.40
2017-11-29T18:54:53.829Z,83.32
2017-11-29T18:57:21.803Z,83.27
2017-11-29T18:59:49.721Z,83.50
2017-11-29T19:02:18.025Z,83.54
2017-11-29T19:04:45.928Z,83.51
2017-11-29T19:07:13.864Z,83.83
2017-11-29T19:09:41.766Z,83.90
2017-11-29T19:12:09.671Z,83.94
2017-11-29T19:14:37.600Z,84.16
2017-11-29T19:17:05.504Z,84.54
2017-11-29T19:19:33.805Z,84.58
2017-11-29T19:22:02.198Z,85.15
2017-11-29T19:24:30.173Z,85.28
2017-11-29T19:26:58.090Z,85.48
2017-11-29T19:29:26.024Z,85.23
2017-11-29T19:31:53.928Z,85.29
2017-11-29T19:34:21.832Z,84.95
2017-11-29T19:36:49.793Z,84.78
2017-11-29T19:39:17.709Z,84.49
2017-11-29T19:41:45.616Z,84.64
2017-11-29T19:44:13.534Z,84.83
2017-11-29T19:46:41.431Z,84.96
2017-11-29T19:49:09.334Z,84.96
2017-11-29T19:51:37.256Z,85.13
2017-11-29T19:54:05.169Z,84.81
2017-11-29T19:56:33.079Z,84.72
2017-11-29T19:59:01.049Z,85.01
2017-11-29T20:01:28.976Z,85.73
2017-11-29T20:03:57.049Z,85.27
2017-11-29T20:06:24.969Z,85.22
2017-11-29T20:08:52.879Z,85.00
2017-11-29T20:11:20.801Z,85.03
2017-11-29T20:13:48.715Z,84.96
2017-11-29T20:16:16.626Z,84.75
2017-11-29T20:18:44.533Z,84.55
2017-11-29T20:21:12.855Z,84.76
2017-11-29T20:23:40.753Z,84.75
2017-11-29T20:26:08.660Z,84.77
2017-11-29T20:28:36.583Z,84.58
2017-11-29T20:31:04.499Z,84.39
2017-11-29T20:33:32.405Z,84.74
2017-11-29T20:36:00.342Z,84.60
2017-11-29T20:38:28.232Z,84.65
2017-11-29T20:40:56.135Z,84.36
2017-11-29T20:43:24.111Z,84.25
2017-11-29T20:45:52.737Z,84.52
2017-11-29T20:48:20.672Z,84.52
2017-11-29T20:50:49.080Z,84.51
2017-11-29T20:53:17.029Z,84.57
2017-11-29T20:55:45.346Z,84.16
2017-11-29T20:58:13.288Z,84.04
2017-11-29T21:00:41.189Z,84.07
2017-11-29T21:03:09.339Z,83.70
2017-11-29T21:05:37.297Z,83.83
2017-11-29T21:08:05.200Z,83.62
2017-11-29T21:10:33.106Z,83.70
2017-11-29T21:13:01.430Z,83.75
2017-11-29T21:15:29.329Z,83.64
2017-11-29T21:17:57.237Z,83.50
2017-11-29T21:20:25.165Z,83.91
2017-11-29T21:22:53.071Z,84.13
2017-11-29T21:25:21.022Z,84.37
2017-11-29T21:27:49.349Z,84.42
2017-11-29T21:30:17.254Z,84.72
2017-11-29T21:32:45.202Z,84.48
2017-11-29T21:35:13.161Z,84.69
2017-11-29T21:37:41.057Z,84.87
2017-11-29T21:40:08.958Z,84.63
2017-11-29T21:42:36.915Z,84.66
2017-11-29T21:45:05.226Z,85.10
2017-11-29T21:47:33.145Z,85.18
2017-11-29T21:50:01.093Z,85.11
2017-11-29T21:52:28.997Z,85.02
2017-11-29T21:54:56.907Z,85.15
2017-11-29T21:57:24.835Z,85.55
2017-11-29T21:59:52.742Z,86.26
2017-11-29T22:02:20.644Z,86.34
2017-11-29T22:04:48.573Z,86.60
2017-11-29T22:07:16.474Z,86.36
2017-11-29T22:09:44.388Z,85.57
2017-11-29T22:12:12.688Z,85.73
2017-11-29T22:14:40.613Z,85.76
2017-11-29T22:17:08.907Z,85.65
2017-11-29T22:19:36.841Z,85.86
2017-11-29T22:22:04.730Z,85.19
2017-11-29T22:24:33.047Z,85.59
2017-11-29T22:27:00.974Z,85.74
2017-11-29T22:29:28.915Z,85.42
2017-11-29T22:31:56.838Z,85.53
2017-11-29T22:34:24.763Z,85.57
2017-11-29T22:36:52.672Z,85.39
2017-11-29T22:39:20.584Z,85.57
2017-11-29T22:41:48.524Z,85.29
2017-11-29T22:44:16.506Z,85.57
2017-11-29T22:46:44.508Z,85.32
2017-11-29T22:49:12.433Z,84.92
2017-11-29T22:51:40.333Z,84.89
2017-11-29T22:54:08.229Z,84.25
2017-11-29T22:56:36.580Z,84.10
2017-11-29T22:59:04.519Z,84.34
2017-11-29T23:01:32.466Z,84.28
2017-11-29T23:04:00.380Z,84.21
2017-11-29T23:06:28.277Z,84.46
2017-11-29T23:08:56.582Z,84.39
2017-11-29T23:11:24.532Z,84.75
2017-11-29T23:13:52.420Z,84.99
2017-11-29T23:16:20.316Z,85.01
2017-11-29T23:18:48.238Z,85.25
2017-11-29T23:21:16.153Z,85.49
2017-11-29T23:23:44.078Z,85.39
2017-11-29T23:26:12.006Z,85.77
2017-11-29T23:28:39.919Z,85.73
2017-11-29T23:31:07.813Z,86.13
2017-11-29T23:33:35.730Z,86.06
2017-11-29T23:36:04.024Z,85.88
2017-11-29T23:38:31.920Z,85.98
2017-11-29T23:40:59.853Z,86.14
2017-11-29T23:43:28.161Z,86.11
2017-11-29T23:45:56.068Z,85.36
2017-11-29T23:48:23.996Z,85.44
2017-11-29T23:50:51.889Z,85.47
2017-11-29T23:53:19.796Z,85.50
2017-11-29T23:55:48.117Z,85.91
2017-11-29T23:58:16.042Z,86.21
